Time;durP1;ratioP1;P1;durP2;ratioP2;P2;SDS_P1;SDS_P2;PMS_P1;PMS_P2;Temp;Humidity;BMP_temperature;BMP_pressure;BME280_temperature;BME280_humidity;BME280_pressure;Samples;Min_cycle;Max_cycle;Signal;HPM_P1;HPM_P2
2023/01/11 00:01:53;;;;;;;;;12.00;9.60;;;;;7.25;83.97;99031.72;5057733;28;8852;-80
2023/01/11 00:04:27;;;;;;;;;9.00;9.00;;;;;7.30;83.61;99036.94;5109423;27;8946;-83
2023/01/11 00:06:57;;;;;;;;;9.00;6.80;;;;;7.09;83.63;99035.97;5091830;28;8910;-82
2023/01/11 00:09:26;;;;;;;;;8.80;8.20;;;;;7.40;83.06;99036.09;5110176;28;8857;-81
2023/01/11 00:11:55;;;;;;;;;8.60;8.40;;;;;7.28;83.01;99039.50;5092188;28;8905;-81
2023/01/11 00:14:24;;;;;;;;;10.00;10.00;;;;;7.08;83.96;99035.94;5092678;28;8857;-83
2023/01/11 00:16:52;;;;;;;;;9.00;8.00;;;;;7.08;84.43;99043.72;5109295;28;8926;-80
2023/01/11 00:19:21;;;;;;;;;7.60;5.80;;;;;7.27;83.39;99040.34;5109560;27;8833;-83
2023/01/11 00:21:50;;;;;;;;;8.80;8.80;;;;;7.22;83.72;99040.34;5129645;27;8834;-81
2023/01/11 00:24:20;;;;;;;;;4.00;4.00;;;;;6.87;83.89;99042.75;5112589;27;9619;-81
2023/01/11 00:26:49;;;;;;;;;8.80;7.80;;;;;6.60;85.85;99056.38;5073999;28;8852;-81
2023/01/11 00:29:18;;;;;;;;;10.20;8.40;;;;;6.51;86.36;99052.00;5086927;28;8847;-82
2023/01/11 00:31:48;;;;;;;;;8.60;8.00;;;;;6.55;86.76;99040.78;5026889;28;8908;-81
2023/01/11 00:34:16;;;;;;;;;12.40;10.60;;;;;6.30;87.04;99080.31;5010710;28;8850;-82
2023/01/11 00:36:45;;;;;;;;;14.40;11.00;;;;;6.31;88.73;99045.78;5043269;28;9667;-78
2023/01/11 00:39:14;;;;;;;;;11.20;10.40;;;;;6.66;85.84;99053.84;5016139;28;8958;-81
2023/01/11 00:50:04;;;;;;;;;14.60;10.60;;;;;6.85;85.64;99046.19;5045317;28;8847;-80
2023/01/11 00:52:33;;;;;;;;;11.80;8.60;;;;;6.66;85.59;99061.63;5013127;28;8956;-79
2023/01/11 00:55:02;;;;;;;;;14.80;10.60;;;;;6.72;86.27;99043.50;5050104;28;8893;-81
2023/01/11 00:57:33;;;;;;;;;14.20;14.20;;;;;7.11;85.33;99051.53;4983551;28;8823;-81
2023/01/11 01:00:02;;;;;;;;;13.60;12.00;;;;;7.11;84.53;99039.44;5032611;28;8836;-80
2023/01/11 01:02:32;;;;;;;;;13.00;11.00;;;;;7.25;83.63;99054.19;5053438;28;8974;-80
2023/01/11 01:05:01;;;;;;;;;15.80;14.20;;;;;6.83;84.87;99088.50;5034863;28;8856;-79
2023/01/11 01:07:30;;;;;;;;;16.60;13.60;;;;;6.99;85.43;99060.09;5065470;28;8830;-81
2023/01/11 01:09:59;;;;;;;;;16.20;15.20;;;;;6.99;85.34;99060.09;5093411;28;8852;-82
2023/01/11 01:15:16;;;;;;;;;13.20;12.20;;;;;7.38;83.77;99061.16;5122583;27;8837;-82
2023/01/11 01:17:45;;;;;;;;;16.80;14.20;;;;;7.22;83.35;99039.47;5087450;28;8867;-81
2023/01/11 01:20:15;;;;;;;;;14.80;13.80;;;;;7.16;84.23;99062.78;5108124;27;8960;-80
2023/01/11 01:22:44;;;;;;;;;15.60;14.80;;;;;7.35;83.22;99051.66;5106642;28;8853;-80
2023/01/11 01:25:13;;;;;;;;;19.20;15.40;;;;;7.40;83.59;99060.31;5123980;27;8884;-79
2023/01/11 01:27:42;;;;;;;;;13.80;12.80;;;;;7.90;81.79;99057.88;5125421;27;8831;-81
2023/01/11 01:30:11;;;;;;;;;12.60;12.20;;;;;7.55;82.96;99066.44;5106461;27;8864;-81
2023/01/11 01:32:42;;;;;;;;;10.80;9.80;;;;;7.30;84.47;99061.13;5107485;27;8932;-82
2023/01/11 01:35:11;;;;;;;;;15.20;15.20;;;;;7.65;83.18;99069.91;5107583;27;8852;-82
2023/01/11 01:37:40;;;;;;;;;16.40;15.00;;;;;7.23;83.12;99044.66;5088821;28;8885;-81
2023/01/11 01:40:10;;;;;;;;;11.40;9.20;;;;;7.49;82.72;99063.81;5120996;27;8857;-81
2023/01/11 01:42:39;;;;;;;;;15.80;15.40;;;;;7.68;82.77;99072.53;5121183;27;9830;-80
2023/01/11 01:45:22;;;;;;;;;15.00;13.40;;;;;7.47;83.34;99060.34;5124183;27;9576;-79
2023/01/11 01:47:58;;;;;;;;;16.60;16.20;;;;;8.02;81.54;99076.09;5126276;27;8935;-80
2023/01/11 01:50:31;;;;;;;;;13.60;12.00;;;;;7.76;82.24;99083.78;5128168;27;8923;-80
2023/01/11 01:53:07;;;;;;;;;16.60;16.60;;;;;8.10;81.18;99079.56;5106232;27;8853;-82
2023/01/11 01:55:39;;;;;;;;;20.20;15.20;;;;;7.58;81.78;99077.69;5125203;27;9774;-83
2023/01/11 01:58:14;;;;;;;;;20.40;15.20;;;;;7.59;82.86;99074.22;5104513;27;8875;-81
2023/01/11 02:00:44;;;;;;;;;14.80;13.00;;;;;7.77;81.68;99076.03;5126822;27;8858;-83
2023/01/11 02:03:19;;;;;;;;;16.40;14.60;;;;;7.69;81.85;99080.28;5106864;27;8841;-82
2023/01/11 02:05:50;;;;;;;;;19.40;16.80;;;;;7.68;82.06;99073.38;5121967;27;8853;-83
2023/01/11 02:08:26;;;;;;;;;17.00;16.60;;;;;7.77;81.45;99083.81;5106187;27;8880;-84
2023/01/11 02:10:55;;;;;;;;;16.80;16.80;;;;;7.98;81.09;99082.13;5127537;27;8914;-83
2023/01/11 02:13:25;;;;;;;;;15.80;15.80;;;;;7.62;82.55;99075.97;5106405;27;8881;-85
2023/01/11 02:16:07;;;;;;;;;16.40;16.00;;;;;7.99;80.60;99078.66;5105786;27;8880;-81
2023/01/11 02:18:38;;;;;;;;;13.40;12.60;;;;;7.76;80.95;99087.25;5123272;27;8856;-83
2023/01/11 02:21:22;;;;;;;;;12.80;12.60;;;;;8.22;81.11;99085.63;5121533;28;8927;-83
2023/01/11 02:24:18;;;;;;;;;16.40;13.40;;;;;8.11;79.46;99080.41;5111023;28;8865;-81
2023/01/11 02:27:25;;;;;;;;;11.40;9.20;;;;;7.95;80.45;99084.72;5123860;27;8850;-80
2023/01/11 02:30:07;;;;;;;;;14.00;14.00;;;;;7.86;80.10;99097.66;5049531;28;8871;-83
2023/01/11 02:32:50;;;;;;;;;14.60;13.80;;;;;7.94;80.50;99091.66;5033479;28;8906;-82
2023/01/11 02:35:34;;;;;;;;;21.20;16.00;;;;;7.88;80.97;99096.81;5037207;28;8858;-82
2023/01/11 02:38:14;;;;;;;;;14.80;13.20;;;;;8.17;80.88;99093.44;5016538;28;9618;-80
2023/01/11 02:40:54;;;;;;;;;16.60;12.20;;;;;8.15;80.30;99093.41;5017875;28;8846;-81
2023/01/11 02:46:24;;;;;;;;;10.60;9.20;;;;;8.20;79.93;99068.34;5015002;28;8838;-83
2023/01/11 02:49:01;;;;;;;;;11.60;10.20;;;;;7.72;81.19;99080.31;5010800;28;8883;-85
2023/01/11 02:51:40;;;;;;;;;14.40;13.00;;;;;7.71;81.96;99098.47;5007752;28;8851;-82
2023/01/11 02:54:11;;;;;;;;;10.80;9.00;;;;;7.82;81.72;99104.56;5005359;28;8880;-82
2023/01/11 02:56:43;;;;;;;;;13.60;13.00;;;;;7.97;80.91;99106.34;4978793;28;8843;-83
2023/01/11 02:59:17;;;;;;;;;13.00;12.60;;;;;8.05;79.64;99117.63;5002827;28;8879;-81
2023/01/11 03:01:50;;;;;;;;;10.80;10.80;;;;;7.81;80.29;99121.88;4967208;28;8902;-82
2023/01/11 03:04:28;;;;;;;;;13.00;10.80;;;;;7.32;82.93;99120.81;4997964;28;8964;-82
2023/01/11 03:07:17;;;;;;;;;10.60;8.60;;;;;7.57;82.29;99112.25;5045686;28;8960;-82
2023/01/11 03:10:01;;;;;;;;;12.40;10.80;;;;;7.64;81.78;99123.56;5077328;28;8878;-81
2023/01/11 03:12:53;;;;;;;;;12.20;10.60;;;;;7.54;82.54;99112.28;5074898;28;8851;-80
2023/01/11 03:15:37;;;;;;;;;12.20;11.60;;;;;7.27;82.14;99130.28;5072410;28;9623;-82
2023/01/11 03:18:22;;;;;;;;;11.80;11.00;;;;;7.52;81.79;99116.56;5069017;28;8982;-84
2023/01/11 03:21:00;;;;;;;;;11.40;9.40;;;;;7.71;81.53;99122.72;5086852;28;8928;-84
2023/01/11 03:23:35;;;;;;;;;11.00;11.00;;;;;7.49;81.62;99150.28;5104172;28;8845;-83
2023/01/11 03:26:16;;;;;;;;;4.40;4.40;;;;;7.03;82.72;99143.09;5086049;28;8868;-83
2023/01/11 03:28:55;;;;;;;;;7.20;7.20;;;;;7.14;83.36;99137.94;5090178;28;8951;-82
2023/01/11 03:31:33;;;;;;;;;10.80;10.20;;;;;7.30;81.30;99136.34;5075685;28;8873;-81
2023/01/11 03:34:16;;;;;;;;;13.40;10.20;;;;;6.88;83.60;99147.28;5073274;28;9700;-82
2023/01/11 03:36:52;;;;;;;;;11.20;8.40;;;;;7.25;83.44;99144.97;5104100;28;8931;-81
2023/01/11 03:39:26;;;;;;;;;13.00;11.00;;;;;7.15;83.68;99144.88;5108326;28;8832;-80
2023/01/11 03:41:59;;;;;;;;;8.40;8.40;;;;;7.53;82.80;99138.19;5091556;28;8901;-79
2023/01/11 03:44:33;;;;;;;;;13.80;12.20;;;;;7.06;82.97;99152.59;5093171;28;8843;-81
2023/01/11 03:47:07;;;;;;;;;13.20;12.00;;;;;7.17;83.45;99160.47;5095194;28;8944;-80
2023/01/11 03:49:43;;;;;;;;;11.00;11.00;;;;;6.97;84.06;99168.09;5093078;28;8928;-82
2023/01/11 03:52:14;;;;;;;;;12.20;11.80;;;;;7.05;82.81;99165.53;5088068;28;9593;-81
2023/01/11 03:54:44;;;;;;;;;16.40;13.40;;;;;7.10;83.23;99179.41;5103855;28;8879;-82
2023/01/11 03:57:16;;;;;;;;;9.40;8.20;;;;;7.30;82.46;99158.81;5071451;28;8870;-80
2023/01/11 03:59:46;;;;;;;;;12.40;9.40;;;;;7.00;83.90;99158.59;5088724;28;8851;-81
2023/01/11 04:02:16;;;;;;;;;13.00;11.60;;;;;6.87;83.14;99168.88;5090728;28;8998;-81
2023/01/11 04:04:47;;;;;;;;;11.00;11.00;;;;;6.86;82.84;99180.94;5088018;28;8852;-82
2023/01/11 04:07:17;;;;;;;;;11.40;9.40;;;;;6.93;83.73;99168.91;5105038;28;8872;-80
2023/01/11 04:09:46;;;;;;;;;11.60;11.60;;;;;6.74;83.64;99170.50;5094268;28;8855;-80
2023/01/11 04:12:15;;;;;;;;;15.00;12.00;;;;;6.81;83.46;99187.84;5094546;28;8852;-81
2023/01/11 04:14:44;;;;;;;;;15.00;12.40;;;;;6.84;83.77;99187.84;5083995;28;8898;-81
2023/01/11 04:17:13;;;;;;;;;9.80;8.60;;;;;6.92;83.74;99191.38;5078170;28;10193;-81
2023/01/11 04:19:42;;;;;;;;;13.60;11.60;;;;;6.43;84.32;99220.28;5056202;28;8861;-79
2023/01/11 04:22:12;;;;;;;;;13.20;11.80;;;;;6.30;84.79;99210.66;5069555;28;8857;-81
2023/01/11 04:24:41;;;;;;;;;8.60;8.20;;;;;6.30;85.17;99209.78;5054683;28;8854;-79
2023/01/11 04:27:10;;;;;;;;;13.40;11.20;;;;;6.33;85.63;99215.88;5051114;28;8855;-81
2023/01/11 04:29:39;;;;;;;;;7.40;7.40;;;;;6.27;85.44;99200.25;5089011;28;8845;-79
2023/01/11 04:32:08;;;;;;;;;6.80;6.60;;;;;6.27;85.29;99196.78;5110851;28;8845;-80
2023/01/11 04:34:38;;;;;;;;;9.20;5.40;;;;;6.19;84.68;99213.09;5052948;28;8935;-80
2023/01/11 04:37:06;;;;;;;;;11.40;11.40;;;;;6.31;85.43;99206.31;5006591;28;9055;-79
2023/01/11 04:39:37;;;;;;;;;14.00;10.20;;;;;6.24;85.63;99224.38;4989550;28;8883;-81
2023/01/11 04:42:20;;;;;;;;;7.20;6.20;;;;;6.34;85.46;99219.31;4989177;28;8887;-79
2023/01/11 04:44:50;;;;;;;;;9.80;9.80;;;;;6.17;85.88;99227.75;5004488;28;8930;-79
2023/01/11 04:47:21;;;;;;;;;19.80;14.80;;;;;6.24;86.03;99237.34;5005253;28;8865;-80
2023/01/11 04:49:50;;;;;;;;;13.20;12.00;;;;;6.35;85.86;99229.69;5021944;28;8942;-80
2023/01/11 04:52:20;;;;;;;;;13.80;13.00;;;;;6.38;85.61;99234.03;5007684;28;8848;-80
2023/01/11 04:54:52;;;;;;;;;15.00;10.60;;;;;6.43;85.03;99248.78;4990784;28;8860;-81
2023/01/11 04:57:21;;;;;;;;;14.80;13.80;;;;;6.71;84.93;99240.41;5008246;28;8849;-81
2023/01/11 04:59:50;;;;;;;;;32.75;27.50;;;;;6.67;85.01;99236.91;4955207;28;8902;-79
2023/01/11 05:02:19;;;;;;;;;18.20;15.20;;;;;6.89;84.25;99243.19;5004815;28;8853;-78
2023/01/11 05:04:48;;;;;;;;;12.40;12.40;;;;;6.54;84.66;99242.81;5005979;28;8861;-79
2023/01/11 05:07:17;;;;;;;;;14.00;14.00;;;;;6.49;85.74;99245.38;5007085;28;9001;-79
2023/01/11 05:09:45;;;;;;;;;19.80;17.40;;;;;6.68;85.04;99255.94;5063103;28;8860;-80
2023/01/11 05:12:15;;;;;;;;;17.40;14.40;;;;;6.81;84.03;99256.06;5079470;28;8865;-81
2023/01/11 05:14:44;;;;;;;;;18.40;17.20;;;;;6.73;84.96;99262.91;5075682;28;8884;-79
2023/01/11 05:17:15;;;;;;;;;18.60;16.60;;;;;6.73;84.69;99262.91;5076506;28;8962;-80
2023/01/11 05:19:43;;;;;;;;;14.20;14.20;;;;;7.06;83.35;99263.22;5091520;28;8853;-81
2023/01/11 05:22:12;;;;;;;;;16.00;16.00;;;;;6.73;84.21;99273.28;5088688;28;9598;-78
2023/01/11 05:24:41;;;;;;;;;19.20;19.00;;;;;6.80;84.55;99272.47;5046074;28;8889;-80
2023/01/11 05:27:10;;;;;;;;;21.60;15.20;;;;;6.93;84.06;99276.06;5016696;28;9601;-80
2023/01/11 05:29:40;;;;;;;;;18.40;16.80;;;;;7.12;83.14;99281.41;5056556;28;8877;-80
2023/01/11 05:32:11;;;;;;;;;19.00;14.20;;;;;6.94;83.93;99282.13;5053018;28;8892;-79
2023/01/11 05:34:39;;;;;;;;;29.00;27.40;;;;;7.02;83.72;99286.50;5002340;28;8879;-80
2023/01/11 05:37:08;;;;;;;;;17.40;14.80;;;;;7.02;83.75;99281.31;5052503;28;8952;-79
2023/01/11 05:39:37;;;;;;;;;18.00;17.80;;;;;7.16;82.89;99293.56;5052212;28;8846;-82
2023/01/11 05:42:06;;;;;;;;;21.00;17.00;;;;;7.10;83.64;99294.38;5068488;28;8838;-79
2023/01/11 05:47:22;;;;;;;;;19.00;18.00;;;;;7.46;81.85;99294.69;5052074;28;8901;-84
2023/01/11 05:49:51;;;;;;;;;22.80;20.00;;;;;7.27;82.17;99302.28;5059901;28;8896;-82
2023/01/11 05:52:20;;;;;;;;;23.00;19.00;;;;;7.32;82.77;99304.94;5068809;28;8846;-81
2023/01/11 05:54:48;;;;;;;;;19.00;18.20;;;;;6.98;83.77;99304.63;5085021;27;8871;-80
2023/01/11 05:57:17;;;;;;;;;18.00;16.20;;;;;7.29;82.83;99304.91;5115197;27;8849;-81
2023/01/11 05:59:46;;;;;;;;;22.00;22.00;;;;;7.47;82.43;99304.22;5127651;27;8870;-80
2023/01/11 06:02:15;;;;;;;;;15.60;14.80;;;;;7.08;83.94;99314.22;5114819;27;8871;-79
2023/01/11 06:04:46;;;;;;;;;19.20;15.80;;;;;6.90;83.94;99312.34;5132541;27;8998;-80
2023/01/11 06:07:14;;;;;;;;;20.40;19.20;;;;;7.19;83.08;99322.13;5108420;27;8842;-81
2023/01/11 06:09:43;;;;;;;;;21.80;18.80;;;;;6.93;83.76;99321.84;5112128;27;8831;-82
2023/01/11 06:12:12;;;;;;;;;21.00;18.60;;;;;6.80;84.44;99315.66;5112033;27;8855;-82
2023/01/11 06:14:41;;;;;;;;;20.60;16.40;;;;;7.15;83.77;99328.13;5130318;27;8835;-79
2023/01/11 06:17:09;;;;;;;;;19.00;18.20;;;;;6.99;84.29;99322.81;5118840;27;8830;-81
2023/01/11 06:19:38;;;;;;;;;18.60;18.20;;;;;6.93;84.46;99322.72;5115875;27;8865;-81
2023/01/11 06:22:08;;;;;;;;;22.40;20.00;;;;;7.00;84.13;99328.84;5104817;28;8915;-82
2023/01/11 06:24:37;;;;;;;;;23.40;20.00;;;;;7.39;82.56;99332.66;5102063;28;8953;-83
2023/01/11 06:27:06;;;;;;;;;18.40;18.00;;;;;6.96;83.74;99337.44;5104322;28;8901;-81
2023/01/11 06:29:35;;;;;;;;;23.50;23.25;;;;;6.82;84.19;99345.94;5104830;28;8932;-82
2023/01/11 06:32:04;;;;;;;;;27.60;26.20;;;;;6.83;84.80;99349.41;5053692;28;8861;-81
2023/01/11 06:34:33;;;;;;;;;27.60;24.00;;;;;6.75;84.86;99346.72;5064006;28;8859;-82
2023/01/11 06:37:01;;;;;;;;;32.00;30.25;;;;;6.89;85.12;99343.41;5103853;28;8855;-81
2023/01/11 06:39:32;;;;;;;;;27.50;26.00;;;;;7.05;84.51;99344.44;5080836;28;8825;-80
2023/01/11 06:42:01;;;;;;;;;31.25;28.00;;;;;7.08;83.52;99350.53;5060336;28;8855;-79
2023/01/11 06:44:30;;;;;;;;;30.75;25.50;;;;;6.77;84.74;99357.97;5087884;28;8870;-80
2023/01/11 06:46:58;;;;;;;;;34.50;32.25;;;;;6.85;84.44;99365.84;5088291;28;8867;-78
2023/01/11 06:49:28;;;;;;;;;25.50;19.75;;;;;6.89;84.01;99362.41;5071843;28;9045;-81
2023/01/11 06:51:56;;;;;;;;;37.20;30.60;;;;;6.94;84.18;99363.34;5070235;28;8864;-81
2023/01/11 06:54:25;;;;;;;;;28.75;26.75;;;;;6.98;83.72;99366.84;5068078;28;8888;-81
2023/01/11 06:56:55;;;;;;;;;33.25;30.00;;;;;6.99;83.84;99374.66;5084953;28;8834;-80
2023/01/11 06:59:24;;;;;;;;;36.20;33.00;;;;;6.97;84.09;99372.88;5057551;28;8834;-80
2023/01/11 07:01:53;;;;;;;;;32.00;30.75;;;;;7.04;83.76;99379.88;5051675;28;8857;-81
2023/01/11 07:04:22;;;;;;;;;38.40;32.80;;;;;7.11;83.23;99389.47;5011441;28;8854;-81
2023/01/11 07:06:53;;;;;;;;;30.80;29.80;;;;;6.93;83.46;99382.34;5045410;28;8877;-81
2023/01/11 07:09:22;;;;;;;;;36.75;33.50;;;;;6.90;84.28;99389.19;5047685;28;10159;-81
2023/01/11 07:11:51;;;;;;;;;28.20;25.40;;;;;7.13;83.15;99392.06;5047637;28;8931;-81
2023/01/11 07:14:21;;;;;;;;;37.50;36.00;;;;;6.96;83.66;99390.16;5031037;28;8940;-81
2023/01/11 07:16:50;;;;;;;;;34.00;27.75;;;;;6.95;83.74;99393.59;5047208;28;9051;-80
2023/01/11 07:19:19;;;;;;;;;33.00;30.75;;;;;6.99;84.00;99389.31;5034692;28;8859;-81
2023/01/11 07:21:47;;;;;;;;;34.50;32.75;;;;;6.81;84.27;99396.03;5051027;28;8883;-82
2023/01/11 07:24:16;;;;;;;;;23.50;23.25;;;;;6.64;84.67;99408.75;4992309;28;8883;-81
2023/01/11 07:26:45;;;;;;;;;35.25;29.75;;;;;6.62;85.12;99401.84;4990826;28;8858;-81
2023/01/11 07:29:14;;;;;;;;;37.50;32.00;;;;;6.75;84.59;99406.31;4990277;28;8851;-81
2023/01/11 07:31:46;;;;;;;;;37.75;37.25;;;;;6.68;84.91;99401.91;4991573;28;8871;-82
2023/01/11 07:34:16;;;;;;;;;41.25;34.00;;;;;6.67;84.95;99415.69;5008067;28;8895;-84
2023/01/11 07:36:44;;;;;;;;;33.75;31.00;;;;;6.72;85.19;99413.19;5028211;28;8869;-80
2023/01/11 07:39:13;;;;;;;;;39.00;36.00;;;;;6.72;85.18;99408.00;5032025;28;8886;-80
2023/01/11 07:44:29;;;;;;;;;44.50;40.25;;;;;6.77;85.12;99422.75;5049792;28;8935;-81
2023/01/11 07:46:59;;;;;;;;;40.00;36.00;;;;;6.72;85.01;99416.63;5031187;28;9630;-82
2023/01/11 07:49:28;;;;;;;;;44.50;40.75;;;;;6.69;84.62;99411.44;5016498;28;8994;-82
2023/01/11 07:51:57;;;;;;;;;44.50;41.25;;;;;6.79;84.81;99420.19;4992107;28;8894;-82
2023/01/11 07:54:26;;;;;;;;;47.25;41.50;;;;;6.89;84.14;99418.56;5034397;28;8886;-83
2023/01/11 07:56:56;;;;;;;;;56.00;46.25;;;;;6.79;84.31;99436.59;5021686;28;8893;-81
2023/01/11 07:59:25;;;;;;;;;50.33;44.33;;;;;6.70;85.06;99427.84;5033467;28;8842;-83
2023/01/11 08:01:54;;;;;;;;;53.25;46.75;;;;;7.00;84.25;99435.13;5034516;28;8999;-82
2023/01/11 08:04:25;;;;;;;;;51.75;42.25;;;;;6.83;84.66;99432.34;4984209;28;9081;-84
2023/01/11 08:06:53;;;;;;;;;38.00;34.75;;;;;6.81;84.07;99442.69;5035265;28;8850;-82
2023/01/11 08:09:22;;;;;;;;;46.00;40.75;;;;;6.72;84.64;99444.28;5049504;28;8877;-83
2023/01/11 08:14:41;;;;;;;;;48.75;44.00;;;;;7.14;83.20;99462.06;5031729;28;8850;-81
2023/01/11 08:17:12;;;;;;;;;44.75;42.50;;;;;6.88;83.23;99469.56;5032746;28;8992;-83
2023/01/11 08:19:43;;;;;;;;;51.25;45.25;;;;;6.93;83.76;99475.66;5057856;27;8848;-81
2023/01/11 08:22:12;;;;;;;;;46.25;40.00;;;;;7.41;82.51;99478.84;5087536;28;8899;-83
2023/01/11 08:24:41;;;;;;;;;53.75;43.25;;;;;7.08;82.49;99482.75;5087915;28;8849;-82
2023/01/11 08:27:10;;;;;;;;;36.25;35.75;;;;;7.30;82.51;99481.31;5070956;28;8857;-82
2023/01/11 08:29:42;;;;;;;;;37.75;35.00;;;;;7.31;81.91;99483.03;5069120;28;8845;-83
2023/01/11 08:32:12;;;;;;;;;36.25;33.25;;;;;7.34;81.85;99490.84;5070443;28;8860;-80
2023/01/11 08:34:42;;;;;;;;;54.50;40.25;;;;;7.05;83.01;99490.50;5037274;28;8966;-82
2023/01/11 08:37:11;;;;;;;;;40.75;36.75;;;;;7.25;82.61;99497.66;5071003;28;9546;-81
2023/01/11 08:39:40;;;;;;;;;36.75;33.50;;;;;6.88;83.98;99505.84;5037510;28;8853;-82
2023/01/11 08:42:08;;;;;;;;;52.50;43.75;;;;;7.10;82.76;99503.53;5053489;28;8880;-83
2023/01/11 08:44:37;;;;;;;;;42.50;40.25;;;;;7.35;82.20;99500.38;5070365;28;8887;-81
2023/01/11 08:47:06;;;;;;;;;48.00;41.00;;;;;7.35;81.76;99508.16;5014311;28;8884;-82
2023/01/11 08:49:35;;;;;;;;;46.25;37.75;;;;;6.95;82.84;99517.16;5010426;28;8907;-82
2023/01/11 08:52:05;;;;;;;;;35.25;32.50;;;;;6.91;82.70;99517.97;5010435;28;8844;-82
2023/01/11 08:54:34;;;;;;;;;33.00;32.00;;;;;7.16;82.92;99516.56;5010539;28;8852;-80
2023/01/11 08:57:03;;;;;;;;;42.25;38.75;;;;;7.05;82.01;99523.31;4994131;28;8864;-81
2023/01/11 08:59:32;;;;;;;;;37.75;33.75;;;;;7.06;82.83;99523.34;5010670;28;9628;-82
2023/01/11 09:02:01;;;;;;;;;40.00;35.50;;;;;7.26;81.73;99523.63;4990845;28;8862;-81
2023/01/11 09:04:32;;;;;;;;;38.00;33.25;;;;;7.24;82.13;99517.53;4991132;28;9659;-83
2023/01/11 09:07:02;;;;;;;;;29.75;26.25;;;;;7.59;81.43;99522.25;4974310;28;8912;-82
2023/01/11 09:09:35;;;;;;;;;33.25;31.75;;;;;7.63;80.91;99533.56;4990591;28;8866;-83
2023/01/11 09:12:04;;;;;;;;;42.75;39.75;;;;;7.29;82.38;99540.94;4991023;28;8881;-83
2023/01/11 09:14:34;;;;;;;;;39.50;37.00;;;;;7.26;81.64;99554.75;4991200;28;8866;-81
2023/01/11 09:17:03;;;;;;;;;43.50;34.25;;;;;7.26;82.03;99539.19;4993378;28;8902;-82
2023/01/11 09:19:33;;;;;;;;;46.00;40.50;;;;;7.48;81.33;99537.69;5009984;28;8824;-83
2023/01/11 09:22:02;;;;;;;;;34.00;31.75;;;;;7.47;81.67;99551.53;5043324;28;8903;-83
2023/01/11 09:24:32;;;;;;;;;29.25;28.00;;;;;7.46;81.88;99541.13;5026993;28;8871;-82
2023/01/11 09:27:03;;;;;;;;;48.50;37.75;;;;;7.14;81.82;99541.59;5044590;28;8864;-82
2023/01/11 09:29:33;;;;;;;;;40.75;37.75;;;;;7.11;83.05;99542.44;5040433;28;8863;-83
2023/01/11 09:32:05;;;;;;;;;51.25;38.75;;;;;7.19;82.62;99543.41;5068372;27;8905;-81
2023/01/11 09:34:34;;;;;;;;;59.75;49.25;;;;;7.25;82.07;99552.13;5095485;27;8841;-83
2023/01/11 09:37:05;;;;;;;;;64.25;52.25;;;;;7.15;82.64;99541.63;5094987;27;8984;-82
2023/01/11 09:39:36;;;;;;;;;45.75;39.50;;;;;7.27;82.29;99550.41;5095258;27;8846;-82
2023/01/11 09:42:23;;;;;;;;;53.50;45.00;;;;;7.31;82.33;99547.88;5095283;27;8937;-81
2023/01/11 09:44:57;;;;;;;;;59.25;47.75;;;;;7.62;81.10;99548.25;5111591;27;8838;-80
2023/01/11 09:47:32;;;;;;;;;60.00;48.00;;;;;7.54;81.27;99532.59;5111072;27;8845;-80
2023/01/11 09:50:06;;;;;;;;;59.75;49.25;;;;;7.40;82.41;99539.34;5128059;27;8857;-79
2023/01/11 09:52:38;;;;;;;;;68.50;51.50;;;;;7.66;81.18;99531.88;5094383;27;8864;-82
2023/01/11 09:55:18;;;;;;;;;75.75;57.75;;;;;7.52;81.85;99534.28;5094046;27;8849;-80
2023/01/11 09:58:01;;;;;;;;;71.25;55.00;;;;;7.16;82.68;99534.72;5064802;28;8907;-82
2023/01/11 10:00:41;;;;;;;;;62.25;53.00;;;;;7.17;82.44;99533.88;5032247;28;8863;-82
2023/01/11 10:03:33;;;;;;;;;52.75;47.75;;;;;7.34;82.52;99545.31;5065628;28;8848;-82
2023/01/11 10:06:16;;;;;;;;;53.00;48.50;;;;;7.18;82.21;99546.88;5048913;28;8867;-83
2023/01/11 10:09:16;;;;;;;;;64.50;52.00;;;;;7.44;81.78;99548.03;5032418;28;8840;-83
2023/01/11 10:12:17;;;;;;;;;54.00;48.50;;;;;7.49;81.39;99547.25;5025919;28;8848;-82
2023/01/11 10:15:16;;;;;;;;;54.25;46.00;;;;;7.54;81.50;99553.38;4993150;28;8848;-82
2023/01/11 10:18:24;;;;;;;;;50.50;43.75;;;;;7.89;80.56;99552.88;4993252;28;8860;-82
2023/01/11 10:21:22;;;;;;;;;43.75;40.00;;;;;7.71;80.59;99556.16;5025727;28;9696;-82
2023/01/11 10:24:00;;;;;;;;;53.50;44.50;;;;;7.56;81.33;99566.31;5009399;28;8925;-81
2023/01/11 10:26:35;;;;;;;;;56.00;46.00;;;;;7.56;81.73;99555.94;5009691;28;8950;-81
2023/01/11 10:29:37;;;;;;;;;53.50;44.50;;;;;7.46;81.99;99561.91;5025194;28;9541;-81
2023/01/11 10:32:33;;;;;;;;;43.00;33.50;;;;;7.53;80.11;99562.00;5068889;28;8984;-83
2023/01/11 10:35:28;;;;;;;;;48.75;41.50;;;;;7.75;79.81;99560.53;5083671;28;8959;-83
2023/01/11 10:38:24;;;;;;;;;46.50;43.50;;;;;7.39;80.71;99556.63;5088845;28;8839;-81
2023/01/11 10:41:05;;;;;;;;;54.50;45.00;;;;;7.36;81.47;99555.72;5072682;28;8840;-81
2023/01/11 10:43:40;;;;;;;;;49.25;41.00;;;;;7.26;80.85;99572.91;5071725;28;8851;-82
2023/01/11 10:46:16;;;;;;;;;58.75;48.50;;;;;7.16;81.05;99553.72;5106134;28;8832;-82
2023/01/11 10:48:46;;;;;;;;;56.25;47.50;;;;;7.22;81.76;99555.53;5100677;27;8879;-82
2023/01/11 10:51:28;;;;;;;;;36.75;34.00;;;;;7.24;81.50;99548.66;5070699;27;8880;-81
2023/01/11 10:54:04;;;;;;;;;61.25;50.25;;;;;7.55;80.38;99538.66;5114960;27;8976;-80
2023/01/11 10:56:50;;;;;;;;;61.25;50.75;;;;;7.51;80.56;99558.50;5097698;27;8964;-83
2023/01/11 10:59:50;;;;;;;;;60.75;49.75;;;;;7.51;80.66;99561.09;5052089;28;8864;-82
2023/01/11 11:02:40;;;;;;;;;68.00;57.00;;;;;7.64;80.53;99556.94;5044203;28;9550;-82
2023/01/11 11:05:23;;;;;;;;;51.25;44.50;;;;;7.43;79.48;99562.75;5072678;28;8869;-81
2023/01/11 11:07:58;;;;;;;;;50.25;43.75;;;;;7.55;80.76;99560.28;5056184;28;8879;-81
2023/01/11 11:10:33;;;;;;;;;62.50;50.50;;;;;7.51;79.80;99568.88;5062335;28;9792;-83
2023/01/11 11:13:12;;;;;;;;;55.25;42.25;;;;;7.52;80.52;99583.59;5102800;28;8860;-83
2023/01/11 11:15:49;;;;;;;;;49.75;44.00;;;;;7.37;80.21;99570.41;5065288;28;8881;-82
2023/01/11 11:18:19;;;;;;;;;54.00;47.00;;;;;7.29;80.76;99569.47;5093650;28;8872;-81
2023/01/11 11:20:48;;;;;;;;;64.25;52.75;;;;;7.65;79.83;99570.78;5089816;28;8856;-81
2023/01/11 11:23:23;;;;;;;;;56.25;49.50;;;;;7.60;79.58;99570.72;5065551;28;8895;-82
2023/01/11 11:25:57;;;;;;;;;64.50;52.50;;;;;7.64;80.01;99576.78;5071926;28;8882;-83
2023/01/11 11:28:29;;;;;;;;;51.75;45.50;;;;;7.48;79.70;99580.94;5054592;28;8883;-82
2023/01/11 11:31:00;;;;;;;;;36.50;33.00;;;;;7.62;79.90;99579.41;5092388;27;8980;-82
2023/01/11 11:33:35;;;;;;;;;51.25;45.50;;;;;7.60;79.70;99571.59;5097525;27;9570;-81
2023/01/11 11:36:06;;;;;;;;;55.50;48.75;;;;;7.96;78.03;99567.66;5096998;27;8919;-84
2023/01/11 11:38:38;;;;;;;;;53.25;42.25;;;;;7.67;79.10;99564.72;5097547;27;8868;-81
2023/01/11 11:41:10;;;;;;;;;53.00;45.25;;;;;7.73;77.46;99569.13;5099028;27;8842;-82
2023/01/11 11:43:41;;;;;;;;;46.75;40.25;;;;;7.65;78.75;99573.38;5097649;27;8894;-82
2023/01/11 11:46:25;;;;;;;;;53.75;46.00;;;;;8.08;78.30;99568.66;5097118;27;8837;-84
2023/01/11 11:49:12;;;;;;;;;43.25;39.75;;;;;7.87;78.09;99579.69;5117019;27;8934;-82
2023/01/11 11:51:43;;;;;;;;;57.00;48.75;;;;;7.59;80.05;99585.41;5112828;27;8841;-83
2023/01/11 11:54:21;;;;;;;;;55.25;43.75;;;;;7.82;78.34;99577.00;5096630;27;8857;-82
2023/01/11 11:56:50;;;;;;;;;69.25;56.75;;;;;7.76;78.99;99579.56;5113530;27;8853;-82
2023/01/11 11:59:22;;;;;;;;;63.75;49.25;;;;;8.18;76.95;99571.34;5071018;28;8943;-82
2023/01/11 12:01:59;;;;;;;;;60.00;45.00;;;;;8.43;75.42;99568.09;5038120;28;9680;-83
2023/01/11 12:04:45;;;;;;;;;53.75;43.75;;;;;8.23;77.45;99571.38;5071306;28;8861;-83
2023/01/11 12:07:16;;;;;;;;;56.25;46.00;;;;;8.06;77.12;99573.81;5071441;28;8838;-83
2023/01/11 12:09:48;;;;;;;;;53.00;44.75;;;;;8.18;76.45;99579.16;5037176;28;8950;-82
2023/01/11 12:12:20;;;;;;;;;46.50;41.75;;;;;7.97;77.26;99584.09;5052076;28;8962;-82
2023/01/11 12:15:18;;;;;;;;;56.00;45.50;;;;;7.72;78.21;99599.41;5044108;28;8867;-82
2023/01/11 12:17:48;;;;;;;;;61.75;46.50;;;;;7.74;79.01;99594.25;5041375;28;8909;-83
2023/01/11 12:20:34;;;;;;;;;52.25;43.75;;;;;8.13;77.03;99598.13;5007973;28;9047;-82
2023/01/11 12:23:14;;;;;;;;;54.25;46.25;;;;;8.58;76.06;99591.63;5056041;28;8956;-82
2023/01/11 12:26:08;;;;;;;;;43.75;40.50;;;;;8.36;75.18;99585.38;5071921;28;9609;-83